createdAt,value
2023-02-12T00:03:34.009Z,32.80
2023-02-12T00:08:36.722Z,31.63
2023-02-12T00:13:38.969Z,30.33
2023-02-12T00:18:41.119Z,36.92
2023-02-12T00:23:43.074Z,33.70
2023-02-12T00:28:45.078Z,33.20
2023-02-12T00:33:48.216Z,36.05
2023-02-12T00:38:52.709Z,34.83
2023-02-12T00:43:55.088Z,37.25
2023-02-12T00:48:57.315Z,40.13
2023-02-12T00:53:59.185Z,35.85
2023-02-12T00:59:01.314Z,40.38
2023-02-12T01:04:03.289Z,37.97
2023-02-12T01:09:05.156Z,38.97
2023-02-12T01:14:07.441Z,38.33
2023-02-12T01:19:11.821Z,36.60
2023-02-12T01:24:13.663Z,38.90
2023-02-12T01:29:15.520Z,39.30
2023-02-12T01:34:17.443Z,39.03
2023-02-12T01:39:19.835Z,40.88
2023-02-12T01:44:24.302Z,41.05
2023-02-12T01:49:40.892Z,47.45
2023-02-12T01:54:43.283Z,41.70
2023-02-12T01:59:50.457Z,43.95
2023-02-12T02:04:57.499Z,40.92
2023-02-12T02:10:00.224Z,41.42
2023-02-12T02:15:04.709Z,43.75
2023-02-12T02:20:42.892Z,44.50
2023-02-12T02:25:54.090Z,39.53
2023-02-12T02:31:24.504Z,46.05
2023-02-12T02:36:32.392Z,50.20
2023-02-12T02:41:41.231Z,45.50
2023-02-12T02:46:48.878Z,44.00
2023-02-12T02:51:56.746Z,41.42
2023-02-12T02:57:08.549Z,46.58
2023-02-12T03:02:31.536Z,45.53
2023-02-12T03:07:36.632Z,45.42
2023-02-12T03:12:47.364Z,48.13
2023-02-12T03:17:50.562Z,45.20
2023-02-12T03:23:01.726Z,48.92
2023-02-12T03:28:13.457Z,49.75
2023-02-12T03:33:37.024Z,48.42
2023-02-12T03:38:47.620Z,46.97
2023-02-12T03:44:15.470Z,44.65
2023-02-12T03:49:27.471Z,45.50
2023-02-12T03:54:29.329Z,47.13
2023-02-12T03:59:31.416Z,47.00
2023-02-12T04:04:34.123Z,47.47
2023-02-12T04:09:36.007Z,43.40
2023-02-12T04:14:56.534Z,47.25
2023-02-12T04:20:16.538Z,48.95
2023-02-12T04:25:37.137Z,47.95
2023-02-12T04:30:44.475Z,50.15
2023-02-12T04:36:01.861Z,44.10
2023-02-12T04:41:06.900Z,39.92
2023-02-12T04:46:09.571Z,42.72
2023-02-12T04:51:11.533Z,46.63
2023-02-12T04:56:14.018Z,43.60
2023-02-12T05:01:16.092Z,45.47
2023-02-12T05:06:18.188Z,42.90
2023-02-12T05:11:20.590Z,43.63
2023-02-12T05:16:22.629Z,44.78
2023-02-12T05:21:24.537Z,42.33
2023-02-12T05:26:26.398Z,48.38
2023-02-12T05:31:28.341Z,43.30
2023-02-12T05:36:30.280Z,45.25
2023-02-12T05:41:35.239Z,44.38
2023-02-12T05:46:37.140Z,43.83
2023-02-12T05:51:39.519Z,45.88
2023-02-12T05:56:47.069Z,47.53
2023-02-12T06:01:51.700Z,48.72
2023-02-12T06:06:55.862Z,46.13
2023-02-12T06:11:57.686Z,41.08
2023-02-12T06:16:59.600Z,42.72
2023-02-12T06:22:01.358Z,43.60
2023-02-12T06:27:03.382Z,35.75
2023-02-12T06:32:07.397Z,45.63
2023-02-12T06:37:09.365Z,42.67
2023-02-12T06:42:11.183Z,39.25
2023-02-12T06:47:13.175Z,38.70
2023-02-12T06:52:14.994Z,44.92
2023-02-12T06:57:17.006Z,44.70
2023-02-12T07:02:18.801Z,41.03
2023-02-12T07:07:20.703Z,48.60
2023-02-12T07:12:22.544Z,44.28
2023-02-12T07:17:24.447Z,42.63
2023-02-12T07:22:26.302Z,48.08
2023-02-12T07:27:28.108Z,49.00
2023-02-12T07:32:32.661Z,48.45
2023-02-12T07:37:34.498Z,42.97
2023-02-12T07:42:36.297Z,44.92
2023-02-12T07:47:41.130Z,44.60
2023-02-12T07:52:42.910Z,40.58
2023-02-12T07:57:45.225Z,40.80
2023-02-12T08:02:53.117Z,41.80
2023-02-12T08:07:55.092Z,37.67
2023-02-12T08:12:56.996Z,37.85
2023-02-12T08:18:01.921Z,49.03
2023-02-12T08:23:03.757Z,35.70
2023-02-12T08:28:06.082Z,56.25
2023-02-12T08:33:07.925Z,56.15
2023-02-12T08:38:09.772Z,33.80
2023-02-12T08:43:11.564Z,35.58
2023-02-12T08:48:13.363Z,27.13
2023-02-12T08:53:15.209Z,30.45
2023-02-12T08:58:17.057Z,29.67
2023-02-12T09:03:18.954Z,30.58
2023-02-12T09:08:20.874Z,35.95
2023-02-12T09:13:22.769Z,40.95
2023-02-12T09:18:24.586Z,37.67
2023-02-12T09:23:26.452Z,40.58
2023-02-12T09:28:28.314Z,48.92
2023-02-12T09:33:30.116Z,42.17
2023-02-12T09:38:32.386Z,42.42
2023-02-12T09:43:44.480Z,44.00
2023-02-12T09:49:00.764Z,48.55
2023-02-12T09:54:11.741Z,50.60
2023-02-12T09:59:26.386Z,44.83
2023-02-12T10:04:28.869Z,48.97
2023-02-12T10:09:30.721Z,49.60
2023-02-12T10:14:59.483Z,45.05
2023-02-12T10:20:31.846Z,55.58
2023-02-12T10:25:51.688Z,45.03
2023-02-12T10:30:59.020Z,43.08
2023-02-12T10:36:31.113Z,37.83
2023-02-12T10:41:39.092Z,34.00
2023-02-12T10:46:41.974Z,38.10
2023-02-12T10:52:02.391Z,36.58
2023-02-12T10:57:19.567Z,32.10
2023-02-12T11:02:32.203Z,28.15
2023-02-12T11:07:48.757Z,27.25
2023-02-12T11:12:50.676Z,24.55
2023-02-12T11:18:26.433Z,21.70
2023-02-12T11:23:39.492Z,22.60
2023-02-12T11:28:59.849Z,22.85
2023-02-12T11:34:07.998Z,20.98
2023-02-12T11:39:21.429Z,23.10
2023-02-12T11:44:28.378Z,26.27
2023-02-12T11:49:33.784Z,26.52
2023-02-12T11:54:46.293Z,22.73
2023-02-12T11:59:48.328Z,27.92
2023-02-12T12:04:54.554Z,28.63
2023-02-12T12:10:03.653Z,29.50
2023-02-12T12:15:45.723Z,29.65
2023-02-12T12:20:53.022Z,25.77
2023-02-12T12:26:03.071Z,24.90
2023-02-12T12:31:13.794Z,25.20
2023-02-12T12:36:30.205Z,29.38
2023-02-12T12:41:48.420Z,24.77
2023-02-12T12:46:59.311Z,23.80
2023-02-12T12:52:24.221Z,20.20
2023-02-12T12:57:47.213Z,20.95
2023-02-12T13:03:14.499Z,21.58
2023-02-12T13:08:33.737Z,23.70
2023-02-12T13:13:38.537Z,21.88
2023-02-12T13:19:13.794Z,23.05
2023-02-12T13:24:21.733Z,27.13
2023-02-12T13:29:29.540Z,27.55
2023-02-12T13:34:34.547Z,36.55
2023-02-12T13:39:40.500Z,32.95
2023-02-12T13:45:01.192Z,28.80
2023-02-12T13:50:21.545Z,26.67
2023-02-12T13:55:33.243Z,25.42
2023-02-12T14:00:50.353Z,23.92
2023-02-12T14:06:20.322Z,20.40
2023-02-12T14:11:26.111Z,21.55
2023-02-12T14:16:30.945Z,22.33
2023-02-12T14:21:35.841Z,21.90
2023-02-12T14:26:38.611Z,21.05
2023-02-12T14:31:40.904Z,20.70
2023-02-12T14:36:45.022Z,22.15
2023-02-12T14:41:48.986Z,20.35
2023-02-12T14:46:53.610Z,24.15
2023-02-12T14:51:58.558Z,24.95
2023-02-12T14:57:06.529Z,27.23
2023-02-12T15:02:17.504Z,30.20
2023-02-12T15:07:41.334Z,30.58
2023-02-12T15:12:49.738Z,32.53
2023-02-12T15:18:11.709Z,35.30
2023-02-12T15:23:33.748Z,33.63
2023-02-12T15:28:37.671Z,28.38
2023-02-12T15:33:48.012Z,29.90
2023-02-12T15:38:53.481Z,32.58
2023-02-12T15:43:55.610Z,35.58
2023-02-12T15:48:58.104Z,39.90
2023-02-12T15:54:00.800Z,37.80
2023-02-12T15:59:03.465Z,39.72
2023-02-12T16:04:07.670Z,37.40
2023-02-12T16:09:26.196Z,35.80
2023-02-12T16:14:40.807Z,40.15
2023-02-12T16:20:00.192Z,37.08
2023-02-12T16:25:03.050Z,47.83
2023-02-12T16:30:23.609Z,46.65
2023-02-12T16:35:33.936Z,52.50
2023-02-12T16:40:36.703Z,52.65
2023-02-12T16:45:40.653Z,42.00
2023-02-12T16:50:50.419Z,43.97
2023-02-12T16:55:52.300Z,41.33
2023-02-12T17:00:56.859Z,41.88
2023-02-12T17:05:58.903Z,39.30
2023-02-12T17:11:00.896Z,42.72
2023-02-12T17:16:03.428Z,45.50
2023-02-12T17:21:09.612Z,46.63
2023-02-12T17:26:12.470Z,43.10
2023-02-12T17:31:14.906Z,49.67
2023-02-12T17:36:16.844Z,41.65
2023-02-12T17:41:19.041Z,34.45
2023-02-12T17:46:24.131Z,32.13
2023-02-12T17:51:26.344Z,33.28
2023-02-12T17:56:28.204Z,34.38
2023-02-12T18:01:30.065Z,31.23
2023-02-12T18:06:32.337Z,27.05
2023-02-12T18:11:34.290Z,25.65
2023-02-12T18:16:36.147Z,39.42
2023-02-12T18:21:38.852Z,34.30
2023-02-12T18:26:40.786Z,28.10
2023-02-12T18:31:42.772Z,31.60
2023-02-12T18:36:44.723Z,26.17
2023-02-12T18:41:47.696Z,32.70
2023-02-12T18:46:49.636Z,37.33
2023-02-12T18:51:51.818Z,30.30
2023-02-12T18:56:54.072Z,36.67
2023-02-12T19:01:56.117Z,35.20
2023-02-12T19:06:58.112Z,39.35
2023-02-12T19:12:00.420Z,47.00
2023-02-12T19:17:02.352Z,41.38
2023-02-12T19:22:04.159Z,49.30
2023-02-12T19:27:06.071Z,45.35
2023-02-12T19:32:08.018Z,40.55
2023-02-12T19:37:11.766Z,45.03
2023-02-12T19:42:15.005Z,33.65
2023-02-12T19:47:16.971Z,48.83
2023-02-12T19:52:18.807Z,39.28
2023-02-12T19:57:20.686Z,37.40
2023-02-12T20:02:22.795Z,51.78
2023-02-12T20:07:24.596Z,44.90
2023-02-12T20:12:26.499Z,45.40
2023-02-12T20:17:28.353Z,40.78
2023-02-12T20:22:30.152Z,55.05
2023-02-12T20:27:32.275Z,58.53
2023-02-12T20:32:34.559Z,51.17
2023-02-12T20:37:36.721Z,79.43
2023-02-12T20:42:38.639Z,76.43
2023-02-12T20:47:40.426Z,69.95
2023-02-12T20:52:42.208Z,55.92
2023-02-12T20:57:44.022Z,69.50
2023-02-12T21:02:46.381Z,62.22
2023-02-12T21:07:49.755Z,53.80
2023-02-12T21:12:51.570Z,54.40
2023-02-12T21:17:53.378Z,60.90
2023-02-12T21:22:55.300Z,64.88
2023-02-12T21:27:57.072Z,55.75
2023-02-12T21:32:58.999Z,57.78
2023-02-12T21:38:00.794Z,50.50
2023-02-12T21:43:02.601Z,52.58
2023-02-12T21:48:04.702Z,55.30
2023-02-12T21:53:06.516Z,50.95
2023-02-12T21:58:08.408Z,53.25
2023-02-12T22:03:10.476Z,55.22
2023-02-12T22:08:12.425Z,53.22
2023-02-12T22:13:14.189Z,59.08
2023-02-12T22:18:15.974Z,62.80
2023-02-12T22:23:17.796Z,56.28
2023-02-12T22:28:19.646Z,48.92
2023-02-12T22:33:21.493Z,52.97
2023-02-12T22:38:23.343Z,49.80
2023-02-12T22:43:25.271Z,58.10
2023-02-12T22:48:28.768Z,58.42
2023-02-12T22:53:30.595Z,55.58
2023-02-12T22:58:33.981Z,59.05
2023-02-12T23:03:37.995Z,57.65
2023-02-12T23:08:40.253Z,55.92
2023-02-12T23:13:42.294Z,60.25
2023-02-12T23:18:44.309Z,56.55
2023-02-12T23:23:46.097Z,52.80
2023-02-12T23:28:47.927Z,56.17
2023-02-12T23:33:49.785Z,52.00
2023-02-12T23:38:51.676Z,48.92
2023-02-12T23:43:53.534Z,43.05
2023-02-12T23:48:55.363Z,43.97
2023-02-12T23:53:57.218Z,54.92
2023-02-12T23:58:59.046Z,43.83
